Time;durP1;ratioP1;P1;durP2;ratioP2;P2;SDS_P1;SDS_P2;PMS_P1;PMS_P2;Temp;Humidity;BMP_temperature;BMP_pressure;BME280_temperature;BME280_humidity;BME280_pressure;Samples;Min_cycle;Max_cycle;Signal;HPM_P1;HPM_P2
2022/02/09 00:07:35;;;;;;;;;;;;;;;7.62;100.00;102384.38;2568880;30;137215;-38
2022/02/09 00:10:03;;;;;;;;;;;;;;;7.67;100.00;102378.47;2567982;30;138539;-38
2022/02/09 00:12:38;;;;;;;;;;;;;;;7.59;100.00;102385.53;2566614;30;137398;-38
2022/02/09 00:17:51;;;;;;;;;;;;;;;7.57;100.00;102384.84;2569445;30;137199;-38
2022/02/09 01:56:04;;;;;;;;;;;;;;;7.38;100.00;102333.38;2568656;30;137212;-41
2022/02/09 01:58:33;;;;;;;;;;;;;;;7.36;100.00;102319.09;2568897;30;139335;-41
2022/02/09 02:01:01;;;;;;;;;;;;;;;7.45;100.00;102329.06;2568730;30;137354;-41
2022/02/09 02:03:29;;;;;;;;;;;;;;;7.45;100.00;102319.03;2570207;30;137669;-41
2022/02/09 02:05:57;;;;;;;;;;;;;;;7.44;100.00;102319.22;2571793;30;137352;-41
2022/02/09 02:08:25;;;;;;;;;;;;;;;7.44;100.00;102319.22;2568793;30;137848;-41
2022/02/09 02:11:10;;;;;;;;;;;;;;;7.44;100.00;102319.22;2568544;30;137378;-41
2022/02/09 02:16:23;;;;;;;;;;;;;;;7.42;100.00;102316.63;2569356;30;136981;-41
2022/02/09 02:19:02;;;;;;;;;;;;;;;7.46;100.00;102315.31;2568781;30;137393;-42
2022/02/09 02:21:51;;;;;;;;;;;;;;;7.49;100.00;102315.00;2569461;30;137022;-41
2022/02/09 02:32:51;;;;;;;;;;;;;;;7.53;100.00;102301.97;2565809;30;137089;-41
2022/02/09 02:36:00;;;;;;;;;;;;;;;7.52;100.00;102304.81;2570002;30;138389;-41
2022/02/09 02:57:51;;;;;;;;;;;;;;;7.49;100.00;102306.00;2568901;30;138327;-41
2022/02/09 03:08:46;;;;;;;;;;;;;;;7.50;100.00;102286.00;2568818;30;138501;-40
2022/02/09 03:11:32;;;;;;;;;;;;;;;7.50;100.00;102286.00;2568311;30;136936;-41
2022/02/09 03:14:12;;;;;;;;;;;;;;;7.46;100.00;102269.13;2568771;30;138364;-41
2022/02/09 03:16:46;;;;;;;;;;;;;;;7.45;100.00;102274.75;2570074;30;137371;-40
2022/02/09 03:19:37;;;;;;;;;;;;;;;7.49;100.00;102281.56;2570292;30;137546;-40
2022/02/09 03:53:01;;;;;;;;;;;;;;;7.43;100.00;102274.06;2568924;30;137375;-41
2022/02/09 03:55:39;;;;;;;;;;;;;;;7.38;100.00;102262.78;2570324;30;137066;-41
2022/02/09 03:58:07;;;;;;;;;;;;;;;7.39;100.00;102259.06;2569464;30;138537;-41
2022/02/09 04:00:39;;;;;;;;;;;;;;;7.34;100.00;102267.69;2568931;30;137649;-41
2022/02/09 04:03:11;;;;;;;;;;;;;;;7.34;100.00;102265.81;2567744;30;138152;-41
2022/02/09 04:05:40;;;;;;;;;;;;;;;7.33;100.00;102258.66;2569534;30;136960;-41
2022/02/09 04:08:14;;;;;;;;;;;;;;;7.26;100.00;102268.47;2569938;30;137394;-41
2022/02/09 04:10:48;;;;;;;;;;;;;;;7.26;100.00;102260.31;2570908;30;136906;-41
2022/02/09 04:13:28;;;;;;;;;;;;;;;7.22;100.00;102267.06;2569266;30;137833;-41
2022/02/09 04:16:10;;;;;;;;;;;;;;;7.20;100.00;102258.22;2567780;30;137756;-41
2022/02/09 04:18:51;;;;;;;;;;;;;;;7.19;100.00;102257.34;2571630;30;138389;-40
2022/02/09 04:54:40;;;;;;;;;;;;;;;7.18;100.00;102233.94;2570002;30;137074;-41
2022/02/09 05:28:44;;;;;;;;;;;;;;;7.03;100.00;102220.06;2570269;30;138352;-41
2022/02/09 05:31:11;;;;;;;;;;;;;;;6.99;100.00;102218.66;2569433;30;137196;-41
2022/02/09 05:33:39;;;;;;;;;;;;;;;7.01;100.00;102211.22;2571321;30;139103;-41
2022/02/09 05:36:07;;;;;;;;;;;;;;;6.98;100.00;102216.09;2570946;30;137073;-41
2022/02/09 05:38:35;;;;;;;;;;;;;;;7.03;100.00;102213.78;2571586;30;138414;-40
2022/02/09 05:41:03;;;;;;;;;;;;;;;6.98;100.00;102222.38;2570646;30;137546;-41
2022/02/09 05:43:30;;;;;;;;;;;;;;;7.04;100.00;102219.06;2570497;30;138557;-41
2022/02/09 05:51:39;;;;;;;;;;;;;;;7.09;100.00;102221.31;2567828;30;137092;-40
2022/02/09 05:56:45;;;;;;;;;;;;;;;7.17;100.00;102221.38;2567722;30;137303;-41
2022/02/09 05:59:27;;;;;;;;;;;;;;;7.17;100.00;102217.81;2568661;30;138491;-41
2022/02/09 06:01:56;;;;;;;;;;;;;;;7.25;100.00;102222.44;2569498;30;137087;-40
2022/02/09 06:04:24;;;;;;;;;;;;;;;7.24;100.00;102229.75;2570176;30;137539;-40
2022/02/09 06:06:52;;;;;;;;;;;;;;;7.24;100.00;102226.19;2569443;30;137090;-41
2022/02/09 06:09:20;;;;;;;;;;;;;;;7.22;100.00;102220.06;2567820;30;138057;-42
2022/02/09 06:11:54;;;;;;;;;;;;;;;7.16;100.00;102225.09;2567577;30;137190;-41
2022/02/09 06:19:47;;;;;;;;;;;;;;;7.09;100.00;102217.72;2568201;30;137565;-41
2022/02/09 06:22:15;;;;;;;;;;;;;;;7.05;100.00;102217.22;2568955;30;136879;-40
2022/02/09 06:24:43;;;;;;;;;;;;;;;7.04;100.00;102216.34;2570175;30;138287;-41
2022/02/09 06:27:12;;;;;;;;;;;;;;;7.08;100.00;102222.31;2570936;30;137065;-41
2022/02/09 06:29:45;;;;;;;;;;;;;;;7.04;100.00;102219.06;2568173;30;137488;-40
2022/02/09 06:32:13;;;;;;;;;;;;;;;7.05;100.00;102219.91;2569746;30;138025;-41
2022/02/09 06:34:45;;;;;;;;;;;;;;;7.12;100.00;102217.41;2569663;30;139216;-41
2022/02/09 06:39:46;;;;;;;;;;;;;;;7.24;100.00;102231.59;2567363;30;138407;-40
2022/02/09 06:42:22;;;;;;;;;;;;;;;7.17;100.00;102226.81;2569153;30;137261;-41
2022/02/09 06:44:50;;;;;;;;;;;;;;;7.24;100.00;102229.75;2568036;30;138339;-41
2022/02/09 06:47:23;;;;;;;;;;;;;;;7.23;100.00;102230.75;2568313;30;137205;-41
2022/02/09 06:49:58;;;;;;;;;;;;;;;7.27;100.00;102236.72;2569298;30;138752;-40
2022/02/09 06:52:26;;;;;;;;;;;;;;;7.34;100.00;102235.94;2569388;30;136814;-41
2022/02/09 06:55:19;;;;;;;;;;;;;;;7.35;100.00;102236.81;2569553;30;138626;-40
2022/02/09 07:00:18;;;;;;;;;;;;;;;7.37;100.00;102237.50;2569061;30;139235;-41
2022/02/09 07:02:46;;;;;;;;;;;;;;;7.36;100.00;102229.50;2570131;30;137196;-41
2022/02/09 07:05:15;;;;;;;;;;;;;;;7.37;100.00;102237.50;2568994;30;136838;-40
2022/02/09 07:07:43;;;;;;;;;;;;;;;7.37;100.00;102244.78;2567965;30;137176;-41
2022/02/09 07:10:11;;;;;;;;;;;;;;;7.39;100.00;102240.91;2569907;30;138346;-39
2022/02/09 07:12:39;;;;;;;;;;;;;;;7.40;100.00;102239.03;2567387;30;137384;-40
2022/02/09 07:15:10;;;;;;;;;;;;;;;7.36;100.00;102240.38;2569288;30;137336;-41
2022/02/09 07:17:38;;;;;;;;;;;;;;;7.31;100.00;102241.69;2567159;30;138188;-40
2022/02/09 07:20:16;;;;;;;;;;;;;;;7.25;100.00;102245.03;2570319;30;137348;-41
2022/02/09 07:22:45;;;;;;;;;;;;;;;7.23;100.00;102249.78;2566815;30;138153;-41
2022/02/09 07:25:18;;;;;;;;;;;;;;;7.26;100.00;102251.31;2571369;30;138385;-40
2022/02/09 07:27:53;;;;;;;;;;;;;;;7.22;100.00;102248.06;2570420;30;137104;-40
2022/02/09 07:30:22;;;;;;;;;;;;;;;7.23;100.00;102248.91;2572837;30;138231;-41
2022/02/09 07:32:54;;;;;;;;;;;;;;;7.22;100.00;102247.19;2572074;30;136632;-41
2022/02/09 07:35:22;;;;;;;;;;;;;;;7.17;100.00;102244.97;2568204;30;137336;-40
2022/02/09 07:37:50;;;;;;;;;;;;;;;7.19;100.00;102248.38;2579915;30;137917;-40
2022/02/09 07:40:21;;;;;;;;;;;;;;;7.15;100.00;102238.81;2566380;30;138576;-40
2022/02/09 07:42:53;;;;;;;;;;;;;;;7.12;100.00;102239.13;2569553;30;136967;-40
2022/02/09 07:51:26;;;;;;;;;;;;;;;7.13;100.00;102235.41;2565934;30;137438;-40
2022/02/09 07:54:01;;;;;;;;;;;;;;;7.16;100.00;102230.53;2568701;30;137234;-40
2022/02/09 07:56:40;;;;;;;;;;;;;;;7.17;100.00;102225.97;2568001;30;138522;-40
2022/02/09 07:59:09;;;;;;;;;;;;;;;7.16;100.00;102224.22;2566931;30;138342;-40
2022/02/09 08:01:37;;;;;;;;;;;;;;;7.11;100.00;102226.56;2566832;30;138462;-40
2022/02/09 08:04:05;;;;;;;;;;;;;;;7.15;100.00;102212.53;2566994;30;137469;-40
2022/02/09 08:06:35;;;;;;;;;;;;;;;7.21;100.00;102213.78;2567585;30;138396;-40
2022/02/09 08:09:14;;;;;;;;;;;;;;;7.28;100.00;102214.84;2568510;30;137100;-40
2022/02/09 08:12:12;;;;;;;;;;;;;;;7.34;100.00;102226.97;2567845;30;138455;-40
2022/02/09 08:20:31;;;;;;;;;;;;;;;7.56;100.00;102213.88;2569181;30;137901;-40
2022/02/09 08:31:46;;;;;;;;;;;;;;;7.87;100.00;102216.13;2568217;30;137216;-40
2022/02/09 08:33:59;;;;;;;;;;;;;;;7.95;100.00;102215.31;2568328;30;137497;-40
2022/02/09 08:36:27;;;;;;;;;;;;;;;8.02;100.00;102219.13;2570551;30;137318;-40
2022/02/09 08:38:54;;;;;;;;;;;;;;;8.06;100.00;102215.88;2565453;30;139128;-40
2022/02/09 08:41:22;;;;;;;;;;;;;;;8.12;100.00;102208.97;2566488;30;136988;-40
2022/02/09 08:43:50;;;;;;;;;;;;;;;8.16;100.00;102212.22;2568774;30;137489;-40
2022/02/09 08:46:18;;;;;;;;;;;;;;;8.20;100.00;102222.59;2568071;30;137202;-40
2022/02/09 08:48:46;;;;;;;;;;;;;;;8.23;100.00;102209.72;2568027;30;139531;-40
2022/02/09 08:51:14;;;;;;;;;;;;;;;8.27;100.00;102211.91;2568474;30;137278;-40
2022/02/09 08:53:42;;;;;;;;;;;;;;;8.32;100.00;102215.00;2566289;30;139677;-40
2022/02/09 08:56:10;;;;;;;;;;;;;;;8.38;100.00;102218.09;2567882;30;138064;-40
2022/02/09 08:58:38;;;;;;;;;;;;;;;8.38;100.00;102212.66;2568413;30;137921;-40
2022/02/09 09:01:10;;;;;;;;;;;;;;;8.44;100.00;102215.56;2566068;30;137507;-40
2022/02/09 09:03:48;;;;;;;;;;;;;;;8.53;100.00;102218.34;2568048;30;138466;-40
2022/02/09 09:06:21;;;;;;;;;;;;;;;8.57;100.00;102217.00;2568676;30;137866;-40
2022/02/09 10:34:06;;;;;;;;;;;;;;;9.17;97.61;102224.09;2568943;30;137104;-40
2022/02/09 10:36:45;;;;;;;;;;;;;;;9.17;96.81;102228.69;2568241;30;138594;-40
2022/02/09 10:39:16;;;;;;;;;;;;;;;9.23;97.70;102233.44;2567618;30;137138;-40
2022/02/09 10:42:03;;;;;;;;;;;;;;;9.23;97.83;102225.28;2567367;30;138995;-40
2022/02/09 10:44:46;;;;;;;;;;;;;;;9.24;97.03;102228.88;2568406;30;137255;-40
2022/02/09 10:47:24;;;;;;;;;;;;;;;9.22;96.81;102229.03;2568674;30;138228;-40
2022/02/09 10:50:11;;;;;;;;;;;;;;;9.25;97.55;102231.41;2567116;30;137152;-40
2022/02/09 10:52:41;;;;;;;;;;;;;;;9.25;96.75;102228.69;2566784;30;137439;-40
2022/02/09 10:55:27;;;;;;;;;;;;;;;9.34;97.08;102226.81;2567471;30;136687;-40
2022/02/09 10:57:58;;;;;;;;;;;;;;;9.35;96.40;102225.78;2568216;30;137122;-40
2022/02/09 11:00:27;;;;;;;;;;;;;;;9.34;96.11;102224.97;2567647;30;137786;-40
2022/02/09 11:02:55;;;;;;;;;;;;;;;9.36;96.53;102222.06;2568264;30;137033;-40
2022/02/09 11:05:24;;;;;;;;;;;;;;;9.40;96.69;102222.56;2565479;30;138038;-40
2022/02/09 11:07:54;;;;;;;;;;;;;;;9.43;96.06;102217.66;2568339;30;138419;-40
2022/02/09 11:10:24;;;;;;;;;;;;;;;9.40;95.48;102217.13;2568019;30;137986;-40
2022/02/09 11:12:53;;;;;;;;;;;;;;;9.48;96.01;102211.66;2567308;30;139734;-40
2022/02/09 11:15:21;;;;;;;;;;;;;;;9.52;95.43;102206.72;2567968;30;137108;-40
2022/02/09 11:17:50;;;;;;;;;;;;;;;9.62;94.47;102204.66;2567758;30;138418;-40
2022/02/09 11:20:21;;;;;;;;;;;;;;;9.68;94.70;102198.56;2568186;30;137033;-40
2022/02/09 11:22:49;;;;;;;;;;;;;;;9.71;92.30;102203.66;2567156;30;137490;-40
2022/02/09 11:25:22;;;;;;;;;;;;;;;9.77;95.18;102188.47;2568805;30;136903;-40
2022/02/09 11:28:10;;;;;;;;;;;;;;;9.83;92.79;102190.50;2568087;30;138217;-40
2022/02/09 11:30:45;;;;;;;;;;;;;;;9.83;92.68;102197.81;2568445;30;137370;-40
2022/02/09 11:33:32;;;;;;;;;;;;;;;9.87;94.13;102197.31;2567642;30;138213;-40
2022/02/09 11:36:05;;;;;;;;;;;;;;;9.90;94.03;102188.78;2567057;30;137273;-40
2022/02/09 11:38:43;;;;;;;;;;;;;;;9.91;95.76;102195.94;2568527;30;138588;-40
2022/02/09 11:41:12;;;;;;;;;;;;;;;9.89;93.87;102183.50;2567677;30;136981;-40
2022/02/09 11:43:52;;;;;;;;;;;;;;;9.90;94.03;102194.22;2567289;30;138584;-40
2022/02/09 11:52:24;;;;;;;;;;;;;;;10.17;92.43;102169.41;2567500;30;136906;-40
2022/02/09 12:09:26;;;;;;;;;;;;;;;10.54;86.47;102169.78;2569688;30;136989;-40
2022/02/09 12:11:59;;;;;;;;;;;;;;;10.72;89.26;102161.31;2567886;30;138164;-40
2022/02/09 12:14:55;;;;;;;;;;;;;;;10.68;86.58;102169.03;2569272;30;137247;-40
2022/02/09 12:20:34;;;;;;;;;;;;;;;10.43;86.60;102158.25;2569560;30;136621;-40
2022/02/09 12:25:44;;;;;;;;;;;;;;;10.43;88.26;102160.97;2567402;30;137394;-40
2022/02/09 12:28:14;;;;;;;;;;;;;;;10.36;86.38;102162.72;2568694;30;137357;-40
2022/02/09 12:30:43;;;;;;;;;;;;;;;10.38;87.13;102157.06;2567909;30;137049;-40
2022/02/09 12:33:18;;;;;;;;;;;;;;;10.41;88.68;102148.53;2568178;30;139039;-40
2022/02/09 12:35:46;;;;;;;;;;;;;;;10.48;87.17;102150.38;2568429;30;137818;-40
2022/02/09 12:38:14;;;;;;;;;;;;;;;10.51;88.08;102143.72;2567599;30;139178;-40
2022/02/09 12:40:42;;;;;;;;;;;;;;;10.42;85.79;102137.47;2568840;30;137918;-40
2022/02/09 12:43:12;;;;;;;;;;;;;;;10.31;85.46;102144.13;2568458;30;138376;-40
2022/02/09 12:45:46;;;;;;;;;;;;;;;10.29;87.61;102139.88;2568384;30;137750;-40
2022/02/09 12:48:16;;;;;;;;;;;;;;;10.26;86.78;102138.38;2568223;30;137363;-40
2022/02/09 12:50:47;;;;;;;;;;;;;;;10.25;88.04;102138.53;2566229;30;137321;-40
2022/02/09 12:53:20;;;;;;;;;;;;;;;10.24;88.22;102145.03;2568267;30;139013;-40
2022/02/09 12:55:51;;;;;;;;;;;;;;;10.21;88.27;102136.16;2568889;30;136713;-40
2022/02/09 12:58:19;;;;;;;;;;;;;;;10.21;86.95;102133.44;2568924;30;138295;-40
2022/02/09 13:00:47;;;;;;;;;;;;;;;10.20;86.91;102133.59;2567969;30;136939;-40
2022/02/09 13:03:18;;;;;;;;;;;;;;;10.17;87.39;102128.50;2567493;30;139006;-40
2022/02/09 13:05:52;;;;;;;;;;;;;;;10.08;86.29;102130.44;2568607;30;137234;-40
2022/02/09 13:08:21;;;;;;;;;;;;;;;10.05;87.52;102128.06;2568663;30;137143;-40
2022/02/09 13:10:49;;;;;;;;;;;;;;;10.05;85.58;102128.06;2568280;30;138104;-40
2022/02/09 13:13:28;;;;;;;;;;;;;;;10.00;85.49;102125.00;2568787;30;138611;-40
2022/02/09 13:21:56;;;;;;;;;;;;;;;10.12;86.06;102115.44;2567716;30;137227;-40
2022/02/09 13:24:29;;;;;;;;;;;;;;;10.13;85.32;102113.53;2568980;30;137039;-40
2022/02/09 14:06:55;;;;;;;;;;;;;;;10.40;84.24;102084.97;2568451;30;137217;-38
2022/02/09 14:16:39;;;;;;;;;;;;;;;10.12;84.79;102082.72;2568867;30;136646;-39
2022/02/09 14:35:52;;;;;;;;;;;;;;;10.30;83.41;102084.28;2567254;30;138322;-38
2022/02/09 14:57:40;;;;;;;;;;;;;;;10.02;82.74;102084.78;2566114;30;137387;-38
2022/02/09 15:00:12;;;;;;;;;;;;;;;10.03;84.70;102081.03;2568081;30;137103;-38
2022/02/09 15:12:14;;;;;;;;;;;;;;;9.90;85.74;102063.38;2566642;30;137197;-38
2022/02/09 15:14:24;;;;;;;;;;;;;;;9.93;85.09;102070.34;2563918;30;139005;-38
2022/02/09 15:24:43;;;;;;;;;;;;;;;9.93;84.65;102065.75;2568540;30;137732;-38
2022/02/09 15:27:15;;;;;;;;;;;;;;;9.97;82.65;102070.84;2566451;30;137597;-38
2022/02/09 15:29:43;;;;;;;;;;;;;;;9.92;83.30;102065.91;2567010;30;137358;-38
2022/02/09 15:34:52;;;;;;;;;;;;;;;9.90;83.84;102059.78;2565017;30;137362;-38
2022/02/09 15:37:29;;;;;;;;;;;;;;;9.90;84.78;102059.78;2568214;30;137000;-38
2022/02/09 15:40:05;;;;;;;;;;;;;;;9.85;84.53;102051.31;2568984;30;138265;-37
2022/02/09 16:23:52;;;;;;;;;;;;;;;8.71;88.79;102042.22;2569563;30;138942;-38
2022/02/09 16:46:02;;;;;;;;;;;;;;;7.76;94.08;102036.06;2569536;30;138823;-38
2022/02/09 16:48:31;;;;;;;;;;;;;;;7.63;94.78;102035.69;2569295;30;137212;-39
2022/02/09 16:51:01;;;;;;;;;;;;;;;7.52;95.58;102034.09;2567211;30;137818;-38
2022/02/09 16:53:47;;;;;;;;;;;;;;;7.43;96.37;102040.53;2568061;30;136958;-38
2022/02/09 17:15:43;;;;;;;;;;;;;;;7.17;100.00;102041.41;2569026;30;137185;-41
2022/02/09 17:20:57;;;;;;;;;;;;;;;7.18;100.00;102040.38;2568119;30;136753;-38
2022/02/09 17:23:25;;;;;;;;;;;;;;;7.18;100.00;102053.94;2567028;30;138432;-38
2022/02/09 17:25:56;;;;;;;;;;;;;;;7.18;100.00;102048.53;2568210;30;136896;-38
2022/02/09 17:28:24;;;;;;;;;;;;;;;7.17;100.00;102046.81;2567877;30;137262;-38
2022/02/09 17:36:43;;;;;;;;;;;;;;;7.17;100.00;102041.41;2567094;30;137341;-38
2022/02/09 17:53:25;;;;;;;;;;;;;;;7.29;100.00;102039.22;2565717;30;137523;-38
2022/02/09 17:55:59;;;;;;;;;;;;;;;7.28;100.00;102035.69;2568975;30;139094;-38
2022/02/09 17:58:34;;;;;;;;;;;;;;;7.28;100.00;102032.97;2568941;30;137137;-38
2022/02/09 18:01:03;;;;;;;;;;;;;;;7.28;100.00;102027.53;2568215;30;138561;-39
2022/02/09 18:03:31;;;;;;;;;;;;;;;7.26;100.00;102024.13;2568580;30;137046;-38
2022/02/09 18:06:12;;;;;;;;;;;;;;;7.28;100.00;102022.09;2568892;30;138216;-38
2022/02/09 18:11:59;;;;;;;;;;;;;;;7.21;100.00;102015.63;2569569;30;138531;-38
2022/02/09 18:14:30;;;;;;;;;;;;;;;7.13;100.00;102010.13;2568476;30;137161;-38
2022/02/09 18:31:10;;;;;;;;;;;;;;;6.18;100.00;102020.59;2565119;30;137089;-38
2022/02/09 18:34:07;;;;;;;;;;;;;;;6.06;100.00;102008.25;2568297;30;138300;-38
2022/02/09 19:04:02;;;;;;;;;;;;;;;5.35;100.00;102004.38;2567289;30;137188;-38
2022/02/09 19:17:28;;;;;;;;;;;;;;;5.40;100.00;101997.47;2569300;30;139284;-38
2022/02/09 19:20:12;;;;;;;;;;;;;;;5.44;100.00;101989.94;2569196;30;136864;-38
2022/02/09 19:29:12;;;;;;;;;;;;;;;5.40;100.00;101977.69;2567016;30;138180;-38
2022/02/09 19:31:42;;;;;;;;;;;;;;;5.37;100.00;101975.31;2568022;30;137143;-39
2022/02/09 19:46:45;;;;;;;;;;;;;;;5.19;100.00;101962.53;2568497;30;138901;-40
2022/02/09 19:56:39;;;;;;;;;;;;;;;5.14;100.00;101959.44;2568008;30;137272;-40
2022/02/09 19:59:16;;;;;;;;;;;;;;;5.17;100.00;101959.13;2568525;30;138061;-40
2022/02/09 20:01:45;;;;;;;;;;;;;;;5.23;100.00;101955.84;2569763;30;137177;-40
2022/02/09 20:04:14;;;;;;;;;;;;;;;5.28;100.00;101958.09;2568206;30;137407;-40
2022/02/09 20:06:45;;;;;;;;;;;;;;;5.32;100.00;101954.09;2568684;30;137501;-40
2022/02/09 20:09:13;;;;;;;;;;;;;;;5.37;100.00;101950.94;2566671;30;136848;-40
2022/02/09 20:11:44;;;;;;;;;;;;;;;5.42;100.00;101954.03;2569027;30;138299;-40
2022/02/09 20:14:11;;;;;;;;;;;;;;;5.51;100.00;101955.00;2569431;30;137157;-40
2022/02/09 20:16:40;;;;;;;;;;;;;;;5.55;100.00;101949.09;2568212;30;137595;-40
2022/02/09 20:19:07;;;;;;;;;;;;;;;5.63;100.00;101953.78;2568523;30;136846;-40
2022/02/09 20:21:36;;;;;;;;;;;;;;;5.69;100.00;101949.59;2568235;30;138309;-40
2022/02/09 20:24:05;;;;;;;;;;;;;;;5.75;100.00;101952.56;2566841;30;137921;-40
2022/02/09 20:26:33;;;;;;;;;;;;;;;5.82;100.00;101950.06;2566492;30;138565;-40
2022/02/09 20:29:27;;;;;;;;;;;;;;;5.87;100.00;101950.50;2568285;30;137269;-40
2022/02/09 20:32:14;;;;;;;;;;;;;;;5.93;100.00;101940.88;2569290;30;138148;-40
2022/02/09 20:35:04;;;;;;;;;;;;;;;5.99;100.00;101939.41;2568822;30;138240;-40
2022/02/09 20:37:32;;;;;;;;;;;;;;;6.02;100.00;101944.56;2569500;30;139061;-40
2022/02/09 20:42:31;;;;;;;;;;;;;;;6.09;100.00;101940.22;2568427;30;138493;-40
2022/02/09 20:45:08;;;;;;;;;;;;;;;6.08;100.00;101943.91;2568437;30;137454;-40
2022/02/09 20:47:37;;;;;;;;;;;;;;;6.09;100.00;101942.91;2568856;30;138328;-40
2022/02/09 20:50:05;;;;;;;;;;;;;;;6.09;100.00;101942.91;2569014;30;137131;-40
2022/02/09 20:52:35;;;;;;;;;;;;;;;6.09;100.00;101940.22;2567239;30;138064;-40
2022/02/09 20:55:03;;;;;;;;;;;;;;;6.10;100.00;101946.50;2568447;30;137025;-40
2022/02/09 20:57:32;;;;;;;;;;;;;;;6.10;100.00;101941.06;2569035;30;138408;-40
2022/02/09 21:00:10;;;;;;;;;;;;;;;6.08;100.00;101938.50;2568399;30;137350;-40
2022/02/09 21:03:03;;;;;;;;;;;;;;;6.07;100.00;101941.38;2567903;30;138444;-40
2022/02/09 21:08:17;;;;;;;;;;;;;;;6.02;100.00;101936.44;2568312;30;138485;-40
2022/02/09 21:10:58;;;;;;;;;;;;;;;5.93;100.00;101935.47;2568553;30;136729;-40
2022/02/09 22:07:00;;;;;;;;;;;;;;;5.39;100.00;101878.56;2567906;30;138321;-40
2022/02/09 22:28:30;;;;;;;;;;;;;;;5.61;100.00;101870.00;2567955;30;138224;-40
2022/02/09 22:55:41;;;;;;;;;;;;;;;5.67;100.00;101848.72;2568876;30;137685;-40
2022/02/09 22:58:13;;;;;;;;;;;;;;;5.68;100.00;101850.44;2567053;30;136615;-40
2022/02/09 23:03:47;;;;;;;;;;;;;;;5.67;100.00;101837.91;2568534;30;136917;-40
2022/02/09 23:06:36;;;;;;;;;;;;;;;5.67;100.00;101833.31;2568767;30;138435;-40
2022/02/09 23:15:13;;;;;;;;;;;;;;;5.71;100.00;101828.44;2566835;30;137324;-40
2022/02/09 23:18:02;;;;;;;;;;;;;;;5.68;100.00;101823.34;2567289;30;138715;-40
